Time;durP1;ratioP1;P1;durP2;ratioP2;P2;SDS_P1;SDS_P2;PMS_P1;PMS_P2;Temp;Humidity;BMP_temperature;BMP_pressure;BME280_temperature;BME280_humidity;BME280_pressure;Samples;Min_cycle;Max_cycle;Signal;HPM_P1;HPM_P2
2023/02/14 00:01:13;;;;;;;39.13;29.48;;;;;;;;;;5010625;28;20045;-58
2023/02/14 00:03:39;;;;;;;37.75;29.55;;;;;;;;;;5007271;28;20052;-59
2023/02/14 00:09:13;;;;;;;36.47;28.55;;;;;;;;;;5015128;28;20099;-59
2023/02/14 00:11:39;;;;;;;37.63;29.25;;;;;;;;;;5006471;28;20033;-57
2023/02/14 00:16:50;;;;;;;41.97;31.77;;;;;;;;;;5026206;28;20087;-58
2023/02/14 00:19:17;;;;;;;38.30;29.27;;;;;;;;;;5001272;28;20039;-60
2023/02/14 00:21:53;;;;;;;40.13;30.40;;;;;;;;;;5028042;28;20426;-61
2023/02/14 00:36:33;;;;;;;34.72;29.13;;;;;;;;;;5025815;28;20405;-60
2023/02/14 00:39:02;;;;;;;41.20;29.85;;;;;;;;;;5027043;28;20036;-59
2023/02/14 00:41:27;;;;;;;38.13;31.92;;;;;;;;;;5023817;28;20026;-60
2023/02/14 00:43:54;;;;;;;38.28;30.95;;;;;;;;;;5029352;28;20049;-60
2023/02/14 00:46:21;;;;;;;38.42;30.65;;;;;;;;;;5031010;28;20079;-59
2023/02/14 00:48:47;;;;;;;39.78;31.95;;;;;;;;;;5030962;28;20425;-60
2023/02/14 00:51:13;;;;;;;40.10;31.08;;;;;;;;;;5031249;28;20055;-59
2023/02/14 00:53:40;;;;;;;38.60;31.20;;;;;;;;;;5012731;28;20032;-60
2023/02/14 00:56:06;;;;;;;41.72;29.65;;;;;;;;;;5013473;28;20025;-59
2023/02/14 00:58:32;;;;;;;44.90;32.00;;;;;;;;;;5031077;28;20768;-58
2023/02/14 01:00:58;;;;;;;40.67;29.55;;;;;;;;;;5013257;28;20227;-58
2023/02/14 01:03:24;;;;;;;39.65;29.13;;;;;;;;;;5030411;28;20056;-57
2023/02/14 01:05:50;;;;;;;39.63;29.80;;;;;;;;;;5013494;28;20032;-59
2023/02/14 01:08:16;;;;;;;40.08;29.15;;;;;;;;;;5030946;28;20079;-59
2023/02/14 01:10:43;;;;;;;39.58;30.25;;;;;;;;;;5013377;28;20040;-59
2023/02/14 01:13:09;;;;;;;42.20;31.30;;;;;;;;;;5030191;28;20478;-59
2023/02/14 01:15:43;;;;;;;42.67;29.88;;;;;;;;;;5030977;28;20060;-59
2023/02/14 01:18:09;;;;;;;38.78;30.00;;;;;;;;;;5030829;28;20407;-59
2023/02/14 01:20:35;;;;;;;36.83;29.25;;;;;;;;;;5030861;28;20021;-58
2023/02/14 01:23:01;;;;;;;41.25;31.77;;;;;;;;;;5030332;28;20403;-59
2023/02/14 01:25:28;;;;;;;41.78;30.60;;;;;;;;;;5034278;28;20022;-59
2023/02/14 01:27:54;;;;;;;41.47;30.13;;;;;;;;;;5034244;28;20064;-59
2023/02/14 01:30:20;;;;;;;41.03;29.73;;;;;;;;;;5016532;28;20049;-57
2023/02/14 01:32:47;;;;;;;39.42;31.88;;;;;;;;;;5034284;28;20083;-57
2023/02/14 01:35:13;;;;;;;37.97;29.95;;;;;;;;;;5033445;28;20040;-59
2023/02/14 01:37:39;;;;;;;40.03;32.65;;;;;;;;;;5033968;28;20032;-59
2023/02/14 01:40:07;;;;;;;38.33;30.40;;;;;;;;;;5034086;28;20030;-58
2023/02/14 01:42:33;;;;;;;41.30;30.85;;;;;;;;;;5034208;28;20029;-58
2023/02/14 01:45:02;;;;;;;39.53;28.60;;;;;;;;;;5033323;28;20116;-57
2023/02/14 01:47:30;;;;;;;42.10;30.52;;;;;;;;;;5034053;28;20025;-61
2023/02/14 01:50:04;;;;;;;39.28;29.73;;;;;;;;;;5034453;28;20029;-58
2023/02/14 01:52:35;;;;;;;35.50;29.65;;;;;;;;;;5034244;28;20087;-58
2023/02/14 01:55:04;;;;;;;41.22;31.20;;;;;;;;;;5033304;28;20026;-59
2023/02/14 01:57:34;;;;;;;43.28;31.27;;;;;;;;;;5033891;28;20029;-58
2023/02/14 02:02:46;;;;;;;37.55;29.30;;;;;;;;;;5034252;28;20040;-57
2023/02/14 02:05:12;;;;;;;39.17;30.35;;;;;;;;;;5015012;28;20462;-59
2023/02/14 02:07:39;;;;;;;39.75;30.63;;;;;;;;;;5033635;28;20462;-59
2023/02/14 02:10:05;;;;;;;36.40;29.10;;;;;;;;;;5033871;28;20028;-60
2023/02/14 02:12:34;;;;;;;37.67;28.98;;;;;;;;;;5033840;28;20192;-60
2023/02/14 02:15:01;;;;;;;40.78;29.58;;;;;;;;;;5033476;28;20033;-57
2023/02/14 02:17:36;;;;;;;38.60;31.10;;;;;;;;;;5033598;28;20076;-59
2023/02/14 02:20:14;;;;;;;36.80;28.77;;;;;;;;;;5033781;28;20017;-59
2023/02/14 02:22:43;;;;;;;39.13;28.02;;;;;;;;;;5033898;28;20017;-54
2023/02/14 02:25:12;;;;;;;39.15;28.80;;;;;;;;;;5032818;28;20116;-59
2023/02/14 02:27:47;;;;;;;36.65;27.52;;;;;;;;;;5033172;28;20033;-57
2023/02/14 02:30:13;;;;;;;37.00;28.85;;;;;;;;;;5033486;28;20532;-60
2023/02/14 02:32:39;;;;;;;36.70;27.98;;;;;;;;;;5027168;28;20025;-55
2023/02/14 02:35:17;;;;;;;35.03;27.38;;;;;;;;;;5025541;28;20028;-60
2023/02/14 02:37:46;;;;;;;36.90;27.58;;;;;;;;;;5030239;28;20075;-61
2023/02/14 02:40:21;;;;;;;34.50;28.67;;;;;;;;;;5025014;28;20021;-58
2023/02/14 02:42:56;;;;;;;40.67;29.77;;;;;;;;;;5033104;28;20030;-57
2023/02/14 02:45:35;;;;;;;36.20;28.05;;;;;;;;;;5031673;28;20033;-59
2023/02/14 02:48:14;;;;;;;35.45;28.83;;;;;;;;;;5016698;28;20018;-59
2023/02/14 02:53:35;;;;;;;33.17;27.27;;;;;;;;;;5032238;28;20040;-58
2023/02/14 02:59:00;;;;;;;34.83;27.47;;;;;;;;;;5032512;28;20500;-60
2023/02/14 03:01:29;;;;;;;35.80;29.48;;;;;;;;;;5032501;28;20036;-59
2023/02/14 03:06:39;;;;;;;34.58;26.23;;;;;;;;;;5032464;28;20496;-59
2023/02/14 03:09:20;;;;;;;37.35;26.75;;;;;;;;;;5032358;28;20025;-55
2023/02/14 03:11:55;;;;;;;34.28;27.77;;;;;;;;;;5032416;28;20028;-59
2023/02/14 03:14:40;;;;;;;35.03;27.83;;;;;;;;;;5013872;28;20055;-59
2023/02/14 03:17:09;;;;;;;33.58;26.38;;;;;;;;;;5032120;28;20375;-59
2023/02/14 03:22:36;;;;;;;38.30;28.60;;;;;;;;;;5032214;28;20087;-58
2023/02/14 03:25:10;;;;;;;36.03;27.38;;;;;;;;;;5031402;28;20029;-59
2023/02/14 03:27:45;;;;;;;34.45;26.80;;;;;;;;;;5031908;28;20033;-58
2023/02/14 03:30:19;;;;;;;36.60;27.42;;;;;;;;;;5032006;28;20025;-58
2023/02/14 03:32:58;;;;;;;36.38;26.80;;;;;;;;;;5031892;28;20021;-59
2023/02/14 03:35:23;;;;;;;;;;;;;;;;;;5031826;28;20063;-58
2023/02/14 03:38:08;;;;;;;36.08;27.10;;;;;;;;;;5031215;28;19949;-57
2023/02/14 03:40:45;;;;;;;36.55;26.33;;;;;;;;;;5031978;28;20033;-55
2023/02/14 03:43:15;;;;;;;37.15;27.70;;;;;;;;;;5031192;28;20029;-59
2023/02/14 03:45:51;;;;;;;37.55;27.83;;;;;;;;;;5013875;28;20026;-59
2023/02/14 03:48:18;;;;;;;34.58;26.27;;;;;;;;;;5031874;28;20083;-58
2023/02/14 03:50:46;;;;;;;33.33;27.63;;;;;;;;;;5014587;28;20489;-59
2023/02/14 03:53:13;;;;;;;33.30;26.63;;;;;;;;;;5013634;28;20474;-58
2023/02/14 03:55:53;;;;;;;35.90;28.58;;;;;;;;;;5031838;28;20041;-59
2023/02/14 03:58:25;;;;;;;35.78;27.90;;;;;;;;;;5031650;28;20033;-59
2023/02/14 04:00:54;;;;;;;36.15;28.10;;;;;;;;;;5031781;28;20401;-59
2023/02/14 04:03:20;;;;;;;36.60;27.30;;;;;;;;;;5030635;28;20101;-56
2023/02/14 04:05:51;;;;;;;35.25;27.65;;;;;;;;;;5031687;28;20091;-57
2023/02/14 04:08:25;;;;;;;32.92;28.30;;;;;;;;;;5013729;28;20026;-58
2023/02/14 04:10:52;;;;;;;33.67;27.48;;;;;;;;;;5031358;28;20048;-57
2023/02/14 04:13:18;;;;;;;34.25;26.35;;;;;;;;;;5012843;28;20417;-55
2023/02/14 04:15:44;;;;;;;34.58;26.92;;;;;;;;;;5031380;28;20053;-56
2023/02/14 04:20:55;;;;;;;36.60;29.08;;;;;;;;;;5031249;28;20088;-57
2023/02/14 04:23:21;;;;;;;34.63;28.45;;;;;;;;;;5013691;28;20144;-57
2023/02/14 04:25:47;;;;;;;34.03;27.67;;;;;;;;;;5032386;28;20022;-58
2023/02/14 04:28:13;;;;;;;32.63;26.05;;;;;;;;;;5032286;28;20147;-59
2023/02/14 04:30:39;;;;;;;38.58;28.05;;;;;;;;;;5032432;28;20025;-56
2023/02/14 04:33:06;;;;;;;40.33;27.05;;;;;;;;;;5030472;28;20036;-58
2023/02/14 04:35:35;;;;;;;36.40;26.33;;;;;;;;;;5030935;28;20106;-56
2023/02/14 04:38:02;;;;;;;35.67;26.73;;;;;;;;;;5030740;28;20389;-61
2023/02/14 04:40:28;;;;;;;35.03;26.95;;;;;;;;;;5031047;28;20490;-54
2023/02/14 04:42:54;;;;;;;36.35;27.77;;;;;;;;;;5013183;28;20538;-58
2023/02/14 04:45:20;;;;;;;37.08;27.35;;;;;;;;;;5030297;28;20029;-57
2023/02/14 04:47:46;;;;;;;33.25;26.08;;;;;;;;;;5013095;28;20033;-57
2023/02/14 04:50:13;;;;;;;34.80;27.25;;;;;;;;;;5030709;28;20405;-59
2023/02/14 04:52:39;;;;;;;35.35;27.45;;;;;;;;;;5030979;28;20029;-58
2023/02/14 04:55:06;;;;;;;33.17;26.55;;;;;;;;;;5012241;28;20064;-56
2023/02/14 04:57:32;;;;;;;37.42;27.50;;;;;;;;;;5031895;28;20409;-59
2023/02/14 04:59:58;;;;;;;35.13;27.77;;;;;;;;;;5034613;28;20052;-56
2023/02/14 05:02:24;;;;;;;35.30;26.70;;;;;;;;;;5034595;28;20025;-58
2023/02/14 05:04:50;;;;;;;35.38;27.45;;;;;;;;;;5034028;28;20025;-58
2023/02/14 05:07:16;;;;;;;44.83;31.85;;;;;;;;;;5034725;28;20040;-59
2023/02/14 05:09:42;;;;;;;35.03;28.45;;;;;;;;;;5035347;28;20047;-60
2023/02/14 05:12:08;;;;;;;36.25;28.40;;;;;;;;;;5034561;28;20034;-59
2023/02/14 05:14:34;;;;;;;39.08;28.77;;;;;;;;;;5033914;28;20561;-59
2023/02/14 05:17:00;;;;;;;33.15;26.92;;;;;;;;;;5034313;28;20021;-57
2023/02/14 05:19:26;;;;;;;36.08;28.58;;;;;;;;;;5034747;28;20036;-58
2023/02/14 05:21:52;;;;;;;34.97;28.23;;;;;;;;;;5016448;28;20018;-58
2023/02/14 05:24:18;;;;;;;37.13;28.63;;;;;;;;;;5029382;28;20070;-58
2023/02/14 05:26:44;;;;;;;38.15;28.38;;;;;;;;;;5025676;28;20128;-58
2023/02/14 05:29:10;;;;;;;34.90;29.02;;;;;;;;;;5034173;28;20036;-59
2023/02/14 05:31:36;;;;;;;35.40;28.50;;;;;;;;;;5033533;28;20033;-59
2023/02/14 05:34:02;;;;;;;36.47;28.85;;;;;;;;;;5025147;28;20478;-59
2023/02/14 05:36:28;;;;;;;31.42;26.08;;;;;;;;;;5033752;28;20025;-58
2023/02/14 05:38:54;;;;;;;34.30;27.27;;;;;;;;;;5016012;28;20084;-59
2023/02/14 05:41:20;;;;;;;34.75;28.17;;;;;;;;;;5034046;28;20485;-58
2023/02/14 05:43:46;;;;;;;33.30;26.67;;;;;;;;;;5031236;28;20052;-58
2023/02/14 05:46:12;;;;;;;38.50;28.15;;;;;;;;;;5026938;28;20018;-58
2023/02/14 05:48:38;;;;;;;38.45;28.42;;;;;;;;;;5033502;28;20037;-56
2023/02/14 05:51:04;;;;;;;35.40;28.45;;;;;;;;;;5033629;28;20029;-57
2023/02/14 05:53:31;;;;;;;36.70;29.25;;;;;;;;;;5021155;28;20096;-56
2023/02/14 05:55:56;;;;;;;33.08;27.40;;;;;;;;;;5033079;28;20378;-59
2023/02/14 05:58:22;;;;;;;33.45;27.55;;;;;;;;;;5033404;28;20033;-59
2023/02/14 06:00:48;;;;;;;34.78;27.52;;;;;;;;;;5033364;28;20409;-57
2023/02/14 06:03:14;;;;;;;33.15;27.02;;;;;;;;;;5032956;28;20036;-57
2023/02/14 06:05:40;;;;;;;34.70;28.27;;;;;;;;;;5045053;28;20025;-59
2023/02/14 06:08:06;;;;;;;32.90;27.40;;;;;;;;;;5036109;28;20027;-55
2023/02/14 06:10:32;;;;;;;35.13;28.38;;;;;;;;;;5032347;28;20053;-58
2023/02/14 06:12:58;;;;;;;33.70;27.13;;;;;;;;;;5032687;28;20033;-54
2023/02/14 06:15:25;;;;;;;34.80;27.25;;;;;;;;;;5032433;28;20025;-58
2023/02/14 06:17:55;;;;;;;35.42;27.77;;;;;;;;;;5031430;28;20032;-55
2023/02/14 06:20:22;;;;;;;37.47;27.23;;;;;;;;;;5020846;28;20053;-59
2023/02/14 06:22:48;;;;;;;38.90;29.48;;;;;;;;;;4996574;28;20108;-53
2023/02/14 06:25:15;;;;;;;37.28;28.65;;;;;;;;;;4995227;28;20037;-58
2023/02/14 06:27:41;;;;;;;37.65;29.58;;;;;;;;;;5012664;28;20038;-58
2023/02/14 06:30:07;;;;;;;39.63;28.67;;;;;;;;;;4995008;28;20026;-58
2023/02/14 06:32:33;;;;;;;36.33;27.63;;;;;;;;;;5012061;28;20034;-58
2023/02/14 06:34:59;;;;;;;37.72;27.95;;;;;;;;;;5011604;28;20597;-60
2023/02/14 06:37:25;;;;;;;40.47;31.13;;;;;;;;;;5024098;28;20025;-56
2023/02/14 06:39:51;;;;;;;37.13;29.67;;;;;;;;;;5032225;28;20022;-60
2023/02/14 06:42:17;;;;;;;41.47;31.85;;;;;;;;;;5032040;28;20029;-60
2023/02/14 06:44:43;;;;;;;41.60;32.28;;;;;;;;;;5031492;28;20308;-56
2023/02/14 06:47:09;;;;;;;42.85;30.17;;;;;;;;;;5032281;28;20032;-60
2023/02/14 06:49:35;;;;;;;42.45;30.55;;;;;;;;;;5032305;28;20500;-59
2023/02/14 06:52:01;;;;;;;38.42;29.17;;;;;;;;;;5031281;28;20025;-60
2023/02/14 06:54:27;;;;;;;38.92;29.38;;;;;;;;;;5030443;28;20025;-56
2023/02/14 06:56:53;;;;;;;35.40;27.23;;;;;;;;;;5030266;28;20048;-60
2023/02/14 06:59:19;;;;;;;37.05;30.13;;;;;;;;;;5031145;28;20029;-55
2023/02/14 07:01:45;;;;;;;39.42;28.77;;;;;;;;;;5029744;28;20021;-61
2023/02/14 07:04:11;;;;;;;38.08;28.65;;;;;;;;;;5031146;28;20080;-60
2023/02/14 07:06:37;;;;;;;36.22;27.85;;;;;;;;;;5031039;28;20029;-60
2023/02/14 07:09:03;;;;;;;34.28;27.63;;;;;;;;;;5031627;28;20446;-59
2023/02/14 07:11:29;;;;;;;34.53;28.00;;;;;;;;;;5030878;28;20037;-58
2023/02/14 07:13:55;;;;;;;39.42;28.40;;;;;;;;;;5030778;28;20041;-59
2023/02/14 07:16:22;;;;;;;35.67;28.75;;;;;;;;;;5013682;28;20503;-58
2023/02/14 07:18:48;;;;;;;37.22;27.92;;;;;;;;;;5031127;28;20033;-56
2023/02/14 07:21:14;;;;;;;34.88;27.63;;;;;;;;;;5012605;28;20022;-60
2023/02/14 07:23:40;;;;;;;39.45;29.38;;;;;;;;;;5030167;28;20131;-60
2023/02/14 07:26:06;;;;;;;37.05;28.42;;;;;;;;;;5013444;28;20224;-57
2023/02/14 07:28:32;;;;;;;38.22;29.40;;;;;;;;;;5031213;28;20561;-58
2023/02/14 07:31:02;;;;;;;40.58;28.85;;;;;;;;;;5022547;28;20032;-58
2023/02/14 07:33:28;;;;;;;38.28;29.33;;;;;;;;;;5008221;28;20030;-59
2023/02/14 07:35:54;;;;;;;39.30;29.55;;;;;;;;;;5023093;28;20033;-58
2023/02/14 07:38:20;;;;;;;39.05;29.67;;;;;;;;;;5013230;28;20037;-59
2023/02/14 07:40:46;;;;;;;47.20;31.58;;;;;;;;;;5004849;28;20025;-58
2023/02/14 07:43:12;;;;;;;44.22;33.60;;;;;;;;;;5012143;28;20099;-60
2023/02/14 07:45:38;;;;;;;40.30;31.42;;;;;;;;;;5031027;28;20109;-61
2023/02/14 07:48:04;;;;;;;42.90;31.95;;;;;;;;;;5031074;28;20106;-60
2023/02/14 07:50:30;;;;;;;43.08;31.45;;;;;;;;;;4997147;28;20140;-55
2023/02/14 07:52:56;;;;;;;41.00;31.00;;;;;;;;;;5019332;28;20026;-58
2023/02/14 07:55:24;;;;;;;40.88;31.02;;;;;;;;;;5025019;28;20029;-58
2023/02/14 07:57:50;;;;;;;39.50;30.48;;;;;;;;;;5030740;28;20359;-56
2023/02/14 08:00:17;;;;;;;40.20;30.38;;;;;;;;;;5030491;28;20043;-60
2023/02/14 08:02:43;;;;;;;42.92;30.42;;;;;;;;;;5031171;28;20097;-57
2023/02/14 08:05:09;;;;;;;44.17;30.45;;;;;;;;;;5030285;28;20044;-56
2023/02/14 08:07:35;;;;;;;38.55;30.10;;;;;;;;;;5030501;28;20037;-58
2023/02/14 08:10:01;;;;;;;35.92;28.88;;;;;;;;;;5030955;28;20431;-60
2023/02/14 08:17:56;;;;;;;37.08;28.23;;;;;;;;;;5030723;28;20040;-59
2023/02/14 08:20:22;;;;;;;37.78;30.10;;;;;;;;;;5012896;28;20124;-57
2023/02/14 08:22:48;;;;;;;35.50;28.70;;;;;;;;;;5030898;28;20025;-60
2023/02/14 08:25:14;;;;;;;38.85;30.13;;;;;;;;;;5030289;28;20022;-57
2023/02/14 08:27:40;;;;;;;36.38;28.52;;;;;;;;;;5030708;28;20052;-58
2023/02/14 08:30:08;;;;;;;37.63;28.95;;;;;;;;;;5030649;28;20029;-59
2023/02/14 08:32:34;;;;;;;35.87;28.53;;;;;;;;;;5015482;28;20504;-57
2023/02/14 08:35:00;;;;;;;35.97;28.33;;;;;;;;;;5019192;28;20264;-56
2023/02/14 08:37:26;;;;;;;35.00;27.83;;;;;;;;;;5037664;28;20025;-57
2023/02/14 08:39:52;;;;;;;36.85;29.02;;;;;;;;;;5038151;28;20099;-56
2023/02/14 08:42:18;;;;;;;36.20;27.98;;;;;;;;;;5037234;28;20026;-54
2023/02/14 08:44:44;;;;;;;34.58;27.67;;;;;;;;;;5018889;28;20162;-54
2023/02/14 08:47:10;;;;;;;36.00;29.13;;;;;;;;;;5037180;28;20095;-54
2023/02/14 08:49:36;;;;;;;34.67;27.70;;;;;;;;;;5019282;28;20067;-59
2023/02/14 08:52:02;;;;;;;34.75;28.55;;;;;;;;;;5037002;28;20113;-55
2023/02/14 08:54:28;;;;;;;33.03;28.25;;;;;;;;;;5036207;28;20033;-54
2023/02/14 08:56:55;;;;;;;34.90;27.98;;;;;;;;;;5037012;28;20107;-56
2023/02/14 08:59:21;;;;;;;33.17;27.50;;;;;;;;;;5036994;28;20033;-54
2023/02/14 09:01:47;;;;;;;33.13;27.83;;;;;;;;;;5019444;28;20029;-56
2023/02/14 09:04:13;;;;;;;33.63;27.33;;;;;;;;;;5036397;28;20502;-51
2023/02/14 09:06:39;;;;;;;34.58;27.65;;;;;;;;;;5037040;28;20071;-53
2023/02/14 09:09:05;;;;;;;35.55;28.85;;;;;;;;;;5037151;28;20502;-57
2023/02/14 09:11:31;;;;;;;32.85;26.83;;;;;;;;;;5036622;28;20039;-52
2023/02/14 09:13:57;;;;;;;36.75;26.90;;;;;;;;;;5030344;28;20041;-51
2023/02/14 09:16:24;;;;;;;31.20;27.80;;;;;;;;;;5028673;28;20088;-53
2023/02/14 09:18:51;;;;;;;31.42;26.15;;;;;;;;;;5028702;28;20084;-56
2023/02/14 09:21:19;;;;;;;31.33;26.13;;;;;;;;;;5023132;28;20018;-56
2023/02/14 09:23:45;;;;;;;29.10;25.05;;;;;;;;;;5016563;28;20022;-55
2023/02/14 09:26:11;;;;;;;32.90;27.15;;;;;;;;;;5017192;28;20045;-60
2023/02/14 09:28:38;;;;;;;27.90;23.30;;;;;;;;;;5017222;28;20366;-56
2023/02/14 09:31:13;;;;;;;33.28;23.90;;;;;;;;;;5015834;28;20097;-58
2023/02/14 09:36:24;;;;;;;30.35;23.38;;;;;;;;;;5017688;28;20118;-61
2023/02/14 09:38:50;;;;;;;26.83;21.85;;;;;;;;;;5016949;28;20458;-60
2023/02/14 09:41:28;;;;;;;26.77;20.90;;;;;;;;;;5016911;28;20026;-59
2023/02/14 09:43:57;;;;;;;43.00;24.00;;;;;;;;;;5014159;28;20117;-57
2023/02/14 09:46:24;;;;;;;33.90;24.25;;;;;;;;;;5014093;28;20066;-60
2023/02/14 09:48:50;;;;;;;30.77;23.92;;;;;;;;;;5013999;28;20034;-61
2023/02/14 09:51:22;;;;;;;35.03;22.58;;;;;;;;;;5014148;28;20032;-61
2023/02/14 09:54:03;;;;;;;31.23;22.58;;;;;;;;;;5013295;28;20026;-57
2023/02/14 09:56:39;;;;;;;30.05;23.27;;;;;;;;;;5013919;28;20394;-58
2023/02/14 09:59:17;;;;;;;33.60;23.15;;;;;;;;;;5013865;28;20562;-57
2023/02/14 10:01:43;;;;;;;;;;;;;;;;;;5013994;28;20033;-57
2023/02/14 10:04:39;;;;;;;31.85;21.65;;;;;;;;;;5024916;28;20091;-60
2023/02/14 10:07:08;;;;;;;32.85;23.30;;;;;;;;;;5016203;28;20493;-59
2023/02/14 10:09:53;;;;;;;30.45;21.75;;;;;;;;;;5033116;28;20453;-59
2023/02/14 10:12:39;;;;;;;25.67;20.15;;;;;;;;;;5015238;28;20029;-62
2023/02/14 10:15:31;;;;;;;30.17;21.08;;;;;;;;;;5031998;28;20042;-60
2023/02/14 10:18:02;;;;;;;27.88;20.38;;;;;;;;;;5029494;28;20413;-59
2023/02/14 10:20:33;;;;;;;25.20;19.48;;;;;;;;;;5033213;28;20022;-57
2023/02/14 10:23:05;;;;;;;29.50;19.63;;;;;;;;;;5033198;28;20026;-58
2023/02/14 10:25:43;;;;;;;31.05;20.30;;;;;;;;;;5032929;28;20022;-55
2023/02/14 10:28:11;;;;;;;28.33;19.63;;;;;;;;;;5032243;28;20053;-56
2023/02/14 10:30:38;;;;;;;29.08;19.25;;;;;;;;;;5032543;28;20381;-59
2023/02/14 10:33:11;;;;;;;29.15;18.40;;;;;;;;;;5031838;28;20041;-55
2023/02/14 10:35:56;;;;;;;30.48;19.17;;;;;;;;;;5032506;28;20029;-57
2023/02/14 10:38:39;;;;;;;23.42;17.02;;;;;;;;;;5032639;28;20385;-59
2023/02/14 10:41:24;;;;;;;25.10;17.98;;;;;;;;;;5032476;28;20434;-59
2023/02/14 10:44:08;;;;;;;24.35;18.13;;;;;;;;;;5031656;28;20045;-58
2023/02/14 10:46:38;;;;;;;30.33;18.25;;;;;;;;;;5031706;28;20063;-60
2023/02/14 10:49:10;;;;;;;25.33;17.55;;;;;;;;;;5009913;28;20088;-61
2023/02/14 10:51:49;;;;;;;24.70;16.98;;;;;;;;;;5018157;28;20033;-56
2023/02/14 10:54:26;;;;;;;28.95;16.88;;;;;;;;;;5025928;28;20489;-56
2023/02/14 10:56:58;;;;;;;25.00;16.05;;;;;;;;;;5028700;28;20031;-60
2023/02/14 10:59:30;;;;;;;23.40;16.17;;;;;;;;;;5025333;28;20356;-60
2023/02/14 11:01:58;;;;;;;24.85;16.02;;;;;;;;;;5031320;28;20533;-61
2023/02/14 11:04:24;;;;;;;23.67;14.93;;;;;;;;;;5031195;28;20030;-60
2023/02/14 11:06:51;;;;;;;24.58;14.90;;;;;;;;;;5029740;28;20030;-61
2023/02/14 11:09:18;;;;;;;22.35;14.48;;;;;;;;;;5029139;28;20108;-59
2023/02/14 11:11:46;;;;;;;23.80;14.02;;;;;;;;;;5023548;28;20083;-59
2023/02/14 11:14:12;;;;;;;;;;;;;;;;;;5031786;28;20025;-58
2023/02/14 11:16:38;;;;;;;31.05;14.63;;;;;;;;;;5031770;28;20310;-59
2023/02/14 11:19:13;;;;;;;25.25;13.73;;;;;;;;;;5031420;28;20076;-65
2023/02/14 11:21:40;;;;;;;22.98;14.88;;;;;;;;;;5031839;28;20022;-61
2023/02/14 11:24:17;;;;;;;23.40;14.27;;;;;;;;;;5030954;28;20021;-65
2023/02/14 11:26:47;;;;;;;23.58;13.98;;;;;;;;;;5031114;28;20132;-62
2023/02/14 11:29:14;;;;;;;31.75;17.13;;;;;;;;;;5032063;28;20061;-63
2023/02/14 11:31:41;;;;;;;30.33;18.48;;;;;;;;;;5031663;28;20598;-63
2023/02/14 11:34:25;;;;;;;20.75;15.38;;;;;;;;;;5013581;28;20022;-63
2023/02/14 11:36:52;;;;;;;24.33;15.52;;;;;;;;;;5031909;28;20040;-62
2023/02/14 11:39:31;;;;;;;20.35;15.20;;;;;;;;;;5031569;28;20025;-63
2023/02/14 11:42:00;;;;;;;23.02;16.05;;;;;;;;;;5014182;28;20041;-63
2023/02/14 11:44:27;;;;;;;26.45;16.08;;;;;;;;;;5030637;28;20104;-62
2023/02/14 11:46:55;;;;;;;24.05;16.25;;;;;;;;;;5031374;28;20025;-62
2023/02/14 11:49:29;;;;;;;22.45;15.27;;;;;;;;;;5031401;28;20040;-59
2023/02/14 11:51:57;;;;;;;20.80;15.85;;;;;;;;;;5031100;28;20087;-63
2023/02/14 11:54:27;;;;;;;19.60;16.10;;;;;;;;;;5030287;28;20364;-60
2023/02/14 11:56:55;;;;;;;20.00;15.30;;;;;;;;;;5031087;28;20156;-60
2023/02/14 11:59:41;;;;;;;19.27;15.95;;;;;;;;;;5030707;28;20026;-62
2023/02/14 12:02:14;;;;;;;25.13;16.92;;;;;;;;;;5030587;28;20473;-59
2023/02/14 12:04:43;;;;;;;22.88;16.58;;;;;;;;;;5029721;28;20390;-59
2023/02/14 12:07:20;;;;;;;18.98;15.80;;;;;;;;;;5011651;28;20033;-58
2023/02/14 12:09:47;;;;;;;24.35;17.73;;;;;;;;;;5030886;28;20346;-58
2023/02/14 12:12:22;;;;;;;22.48;16.60;;;;;;;;;;5031059;28;20465;-61
2023/02/14 12:14:48;;;;;;;23.00;16.35;;;;;;;;;;5030340;28;20040;-58
2023/02/14 12:17:20;;;;;;;21.13;16.65;;;;;;;;;;5013206;28;20028;-57
2023/02/14 12:20:05;;;;;;;21.60;16.65;;;;;;;;;;5030990;28;20497;-60
2023/02/14 12:22:51;;;;;;;22.35;17.15;;;;;;;;;;5032145;28;20083;-60
2023/02/14 12:25:23;;;;;;;28.98;18.00;;;;;;;;;;5012687;28;20074;-59
2023/02/14 12:27:52;;;;;;;22.20;17.55;;;;;;;;;;5013124;28;20034;-58
2023/02/14 12:30:23;;;;;;;20.98;16.58;;;;;;;;;;5030762;28;20025;-60
2023/02/14 12:32:50;;;;;;;25.65;17.38;;;;;;;;;;5030825;28;20018;-59
2023/02/14 12:35:17;;;;;;;22.25;17.95;;;;;;;;;;5030202;28;20052;-63
2023/02/14 12:37:56;;;;;;;22.63;17.58;;;;;;;;;;5031050;28;20029;-60
2023/02/14 12:40:22;;;;;;;19.77;17.27;;;;;;;;;;5027743;28;20402;-62
2023/02/14 12:42:54;;;;;;;19.67;16.15;;;;;;;;;;5023134;28;20094;-61
2023/02/14 12:45:33;;;;;;;22.75;17.00;;;;;;;;;;5029925;28;20021;-60
2023/02/14 12:47:58;;;;;;;;;;;;;;;;;;5022967;28;20046;-61
2023/02/14 12:50:24;;;;;;;25.88;17.90;;;;;;;;;;5030675;28;19947;-62
2023/02/14 12:52:51;;;;;;;23.13;17.33;;;;;;;;;;5030774;28;20517;-59
2023/02/14 12:55:49;;;;;;;21.13;16.65;;;;;;;;;;5029827;28;20397;-58
2023/02/14 12:58:21;;;;;;;20.52;15.73;;;;;;;;;;4997304;28;20060;-59
2023/02/14 13:00:53;;;;;;;23.23;16.70;;;;;;;;;;5013011;28;20052;-61
2023/02/14 13:03:29;;;;;;;22.95;16.70;;;;;;;;;;5012089;28;20022;-62
2023/02/14 13:06:09;;;;;;;19.55;15.80;;;;;;;;;;5030547;28;20030;-58
2023/02/14 13:08:35;;;;;;;22.38;17.17;;;;;;;;;;5030719;28;20029;-61
2023/02/14 13:11:08;;;;;;;23.63;16.60;;;;;;;;;;5030341;28;20311;-63
2023/02/14 13:13:49;;;;;;;19.92;16.02;;;;;;;;;;5029806;28;20029;-63
2023/02/14 13:16:30;;;;;;;21.27;16.98;;;;;;;;;;5030413;28;20389;-61
2023/02/14 13:19:01;;;;;;;21.13;16.38;;;;;;;;;;5012954;28;20030;-61
2023/02/14 13:21:29;;;;;;;22.58;16.85;;;;;;;;;;5034090;28;20083;-58
2023/02/14 13:23:58;;;;;;;19.02;15.68;;;;;;;;;;5033379;28;20029;-60
2023/02/14 13:26:31;;;;;;;23.83;16.98;;;;;;;;;;5033934;28;20034;-58
2023/02/14 13:29:17;;;;;;;21.38;17.08;;;;;;;;;;5033763;28;20029;-60
2023/02/14 13:31:43;;;;;;;20.17;16.30;;;;;;;;;;5034150;28;20022;-62
2023/02/14 13:34:18;;;;;;;22.17;17.17;;;;;;;;;;5033255;28;20482;-60
2023/02/14 13:36:45;;;;;;;20.95;16.85;;;;;;;;;;5033772;28;20025;-61
2023/02/14 13:39:19;;;;;;;20.20;16.17;;;;;;;;;;5033952;28;20070;-59
2023/02/14 13:41:45;;;;;;;19.33;16.45;;;;;;;;;;5034036;28;20083;-59
2023/02/14 13:44:31;;;;;;;20.63;16.60;;;;;;;;;;5033335;28;20025;-61
2023/02/14 13:46:57;;;;;;;23.17;17.02;;;;;;;;;;5033538;28;20175;-61
2023/02/14 13:49:25;;;;;;;22.13;17.98;;;;;;;;;;5015950;28;20560;-59
2023/02/14 13:51:52;;;;;;;;;;;;;;;;;;5034272;28;20096;-60
2023/02/14 13:54:28;;;;;;;20.13;15.98;;;;;;;;;;5031596;28;19905;-57
2023/02/14 13:56:54;;;;;;;21.20;17.13;;;;;;;;;;5033431;28;20030;-60
2023/02/14 13:59:28;;;;;;;22.90;17.48;;;;;;;;;;5033294;28;20036;-59
2023/02/14 14:01:55;;;;;;;30.63;17.00;;;;;;;;;;5033674;28;20042;-59
2023/02/14 14:04:27;;;;;;;21.40;15.27;;;;;;;;;;5032700;28;20028;-59
2023/02/14 14:07:02;;;;;;;19.20;16.10;;;;;;;;;;5033224;28;20032;-61
2023/02/14 14:09:40;;;;;;;20.92;16.95;;;;;;;;;;5033002;28;20025;-60
2023/02/14 14:12:26;;;;;;;23.13;16.83;;;;;;;;;;5033010;28;20068;-62
2023/02/14 14:15:04;;;;;;;21.80;16.30;;;;;;;;;;5032226;28;20072;-63
2023/02/14 14:17:35;;;;;;;21.20;16.33;;;;;;;;;;5032755;28;20022;-60
2023/02/14 14:20:03;;;;;;;22.48;16.15;;;;;;;;;;5032915;28;20481;-62
2023/02/14 14:22:29;;;;;;;20.02;17.23;;;;;;;;;;5032751;28;20393;-61
2023/02/14 14:25:00;;;;;;;24.00;17.27;;;;;;;;;;5031849;28;20029;-61
2023/02/14 14:27:40;;;;;;;20.25;15.95;;;;;;;;;;5032522;28;20057;-62
2023/02/14 14:30:15;;;;;;;21.17;16.95;;;;;;;;;;5032066;28;20047;-62
2023/02/14 14:32:41;;;;;;;19.67;16.13;;;;;;;;;;5032389;28;20391;-62
2023/02/14 14:35:28;;;;;;;23.40;16.33;;;;;;;;;;5031530;28;20029;-62
2023/02/14 14:37:55;;;;;;;20.60;15.98;;;;;;;;;;5015164;28;20426;-60
2023/02/14 14:40:26;;;;;;;22.70;17.33;;;;;;;;;;5032164;28;20160;-62
2023/02/14 14:42:53;;;;;;;23.60;17.23;;;;;;;;;;5031892;28;20022;-57
2023/02/14 14:45:24;;;;;;;24.92;17.23;;;;;;;;;;5013363;28;20112;-60
2023/02/14 14:47:51;;;;;;;23.52;16.55;;;;;;;;;;5031977;28;20029;-59
2023/02/14 14:50:31;;;;;;;21.97;17.53;;;;;;;;;;5032061;28;20030;-62
2023/02/14 14:53:02;;;;;;;22.83;16.90;;;;;;;;;;5031306;28;20484;-60
2023/02/14 14:55:33;;;;;;;21.65;16.23;;;;;;;;;;5032379;28;20021;-62
2023/02/14 14:58:03;;;;;;;22.98;16.20;;;;;;;;;;5008756;28;20338;-61
2023/02/14 15:00:33;;;;;;;21.90;16.13;;;;;;;;;;5018836;28;20026;-58
2023/02/14 15:03:05;;;;;;;23.30;17.88;;;;;;;;;;5022578;28;20025;-59
2023/02/14 15:05:34;;;;;;;24.35;19.40;;;;;;;;;;5031764;28;20026;-59
2023/02/14 15:08:35;;;;;;;21.13;17.73;;;;;;;;;;5014079;28;20029;-58
2023/02/14 15:11:09;;;;;;;20.30;16.23;;;;;;;;;;4999346;28;20041;-61
2023/02/14 15:13:52;;;;;;;29.42;21.20;;;;;;;;;;5031053;28;20549;-61
2023/02/14 15:16:30;;;;;;;24.30;18.02;;;;;;;;;;5031170;28;20037;-60